ENFL/FRO METAR and TAF weather

Enter ICAO airport designator
Station Type Date Time Source
ENFL METAR 2018/12/12 17:20 UTC NOAA

ENFL 121720Z 12011KT 9999 NSC 03/M05 Q1030


Station Type Date Time Source
ENFL Decoded METAR 2018/12/12 17:20 UTC NOAA

Floro, Norway (ENFL) 61-35N 005-02E 9M
Dec 12, 2018 - 12:20 PM EST / 2018.12.12 1720 UTC
Wind: from the ESE (120 degrees) at 13 MPH (11 KT):0
Visibility: greater than 7 mile(s):0
Temperature: 37 F (3 C)
Dew Point: 23 F (-5 C)
Relative Humidity: 55%
Pressure (altimeter): 30.42 in. Hg (1030 hPa)
ob: ENFL 121720Z 12011KT 9999 NSC 03/M05 Q1030
cycle: 17

Station Type Date Time Source
ENFL TAF 2010/02/05 07:50 UTC NOAA

METAR ENFL 050750Z 16019KT 140V200 9999 FEW015 SCT030 BKN055 03/M03 Q1011


Example: see airport list